createdAt,value
2023-02-02T00:01:26.586Z,96132.41
2023-02-02T00:03:53.975Z,96137.25
2023-02-02T00:06:22.196Z,96138.66
2023-02-02T00:08:49.586Z,96130.56
2023-02-02T00:11:17.602Z,96129.19
2023-02-02T00:13:44.983Z,96131.59
2023-02-02T00:16:27.388Z,96130.13
2023-02-02T00:18:56.525Z,96131.66
2023-02-02T00:21:24.236Z,96122.78
2023-02-02T00:23:51.916Z,96131.41
2023-02-02T00:26:19.682Z,96123.56
2023-02-02T00:28:46.782Z,96119.06
2023-02-02T00:31:13.824Z,96124.91
2023-02-02T00:33:45.899Z,96128.31
2023-02-02T00:36:12.938Z,96130.53
2023-02-02T00:38:39.836Z,96141.13
2023-02-02T00:41:07.559Z,96143.53
2023-02-02T00:43:34.482Z,96133.97
2023-02-02T00:46:01.982Z,96142.34
2023-02-02T00:48:29.017Z,96142.03
2023-02-02T00:50:56.200Z,96143.63
2023-02-02T00:53:23.313Z,96153.53
2023-02-02T00:55:50.248Z,96144.34
2023-02-02T00:58:17.153Z,96136.00
2023-02-02T01:00:44.212Z,96134.44
2023-02-02T01:03:13.473Z,96123.03
2023-02-02T01:05:40.623Z,96124.28
2023-02-02T01:08:07.657Z,96125.69
2023-02-02T01:10:35.397Z,96135.72
2023-02-02T01:13:02.799Z,96136.91
2023-02-02T01:15:31.676Z,96139.69
2023-02-02T01:17:58.793Z,96140.94
2023-02-02T01:20:26.075Z,96142.66
2023-02-02T01:22:53.277Z,96140.09
2023-02-02T01:25:20.481Z,96138.88
2023-02-02T01:27:47.880Z,96139.31
2023-02-02T01:30:15.073Z,96135.69
2023-02-02T01:32:42.081Z,96132.13
2023-02-02T01:35:10.498Z,96132.72
2023-02-02T01:37:39.493Z,96136.53
2023-02-02T01:40:07.614Z,96124.19
2023-02-02T01:42:34.782Z,96123.78
2023-02-02T01:45:14.810Z,96123.19
2023-02-02T01:47:51.792Z,96117.19
2023-02-02T01:50:21.791Z,96117.38
2023-02-02T01:52:50.931Z,96117.16
2023-02-02T01:55:20.760Z,96111.63
2023-02-02T01:58:08.532Z,96103.81
2023-02-02T02:00:38.373Z,96101.00
2023-02-02T02:03:14.302Z,96103.34
2023-02-02T02:05:56.062Z,96100.97
2023-02-02T02:08:31.387Z,96094.19
2023-02-02T02:10:58.875Z,96093.03
2023-02-02T02:13:47.585Z,96093.78
2023-02-02T02:16:28.869Z,96080.03
2023-02-02T02:19:20.854Z,96075.19
2023-02-02T02:22:20.291Z,96080.63
2023-02-02T02:25:58.035Z,96077.44
2023-02-02T02:28:38.814Z,96068.06
2023-02-02T02:31:17.933Z,96059.66
2023-02-02T02:34:03.632Z,96072.63
2023-02-02T02:36:41.011Z,96071.06
2023-02-02T02:39:31.442Z,96067.69
2023-02-02T02:42:05.242Z,96077.44
2023-02-02T02:44:34.012Z,96064.72
2023-02-02T02:47:01.277Z,96069.88
2023-02-02T02:49:28.935Z,96069.06
2023-02-02T02:51:56.532Z,96072.69
2023-02-02T02:54:38.294Z,96077.09
2023-02-02T02:57:25.912Z,96078.28
2023-02-02T03:00:26.260Z,96075.88
2023-02-02T03:03:14.552Z,96070.47
2023-02-02T03:06:03.396Z,96068.88
2023-02-02T03:08:36.831Z,96070.69
2023-02-02T03:11:07.057Z,96076.31
2023-02-02T03:13:34.572Z,96080.66
2023-02-02T03:16:02.309Z,96070.69
2023-02-02T03:18:31.584Z,96070.91
2023-02-02T03:20:58.769Z,96075.84
2023-02-02T03:23:26.253Z,96081.03
2023-02-02T03:25:54.255Z,96075.84
2023-02-02T03:28:23.482Z,96073.28
2023-02-02T03:30:52.401Z,96070.25
2023-02-02T03:33:19.913Z,96068.84
2023-02-02T03:35:47.651Z,96062.25
2023-02-02T03:38:14.692Z,96063.09
2023-02-02T03:40:41.982Z,96072.66
2023-02-02T03:43:09.395Z,96056.91
2023-02-02T03:45:37.476Z,96066.81
2023-02-02T03:48:05.968Z,96057.44
2023-02-02T03:50:33.701Z,96058.41
2023-02-02T03:53:00.794Z,96063.22
2023-02-02T03:55:27.752Z,96057.25
2023-02-02T03:57:54.919Z,96053.28
2023-02-02T04:00:22.379Z,96066.25
2023-02-02T04:02:49.574Z,96057.28
2023-02-02T04:05:16.764Z,96065.72
2023-02-02T04:07:43.793Z,96054.69
2023-02-02T04:10:11.342Z,96057.94
2023-02-02T04:12:38.334Z,96062.72
2023-02-02T04:15:05.953Z,96068.53
2023-02-02T04:17:32.913Z,96076.09
2023-02-02T04:19:59.939Z,96084.44
2023-02-02T04:22:27.520Z,96098.41
2023-02-02T04:24:54.513Z,96110.75
2023-02-02T04:27:21.554Z,96124.16
2023-02-02T04:29:48.761Z,96142.72
2023-02-02T04:32:17.035Z,96148.53
2023-02-02T04:34:44.313Z,96156.06
2023-02-02T04:37:12.044Z,96169.47
2023-02-02T04:39:38.995Z,96179.06
2023-02-02T04:42:06.088Z,96177.66
2023-02-02T04:44:33.154Z,96180.44
2023-02-02T04:47:00.310Z,96197.03
2023-02-02T04:49:27.515Z,96188.03
2023-02-02T04:51:54.811Z,96203.38
2023-02-02T04:54:22.053Z,96194.03
2023-02-02T04:56:49.170Z,96203.78
2023-02-02T04:59:16.314Z,96248.66
2023-02-02T05:01:43.454Z,96203.56
2023-02-02T05:04:12.045Z,96174.47
2023-02-02T05:06:39.103Z,96232.88
2023-02-02T05:09:06.221Z,96231.03
2023-02-02T05:11:33.419Z,96217.91
2023-02-02T05:14:00.476Z,96211.91
2023-02-02T05:16:29.164Z,96220.22
2023-02-02T05:18:57.491Z,96218.03
2023-02-02T05:21:24.729Z,96206.03
2023-02-02T05:23:51.772Z,96217.78
2023-02-02T05:26:23.579Z,96243.47
2023-02-02T05:28:50.830Z,96244.03
2023-02-02T05:31:18.468Z,96239.25
2023-02-02T05:33:45.900Z,96251.19
2023-02-02T05:36:13.220Z,96257.16
2023-02-02T05:38:40.214Z,96255.34
2023-02-02T05:41:07.228Z,96253.38
2023-02-02T05:43:34.520Z,96246.41
2023-02-02T05:46:02.244Z,96244.78
2023-02-02T05:48:29.358Z,96242.38
2023-02-02T05:51:02.320Z,96249.34
2023-02-02T05:53:31.255Z,96255.16
2023-02-02T05:55:59.062Z,96261.91
2023-02-02T05:58:26.169Z,96260.50
2023-02-02T06:00:55.018Z,96251.56
2023-02-02T06:03:23.941Z,96252.38
2023-02-02T06:05:51.105Z,96244.41
2023-02-02T06:08:18.118Z,96257.72
2023-02-02T06:10:45.156Z,96255.53
2023-02-02T06:13:12.297Z,96251.13
2023-02-02T06:15:39.294Z,96257.34
2023-02-02T06:18:08.576Z,96255.31
2023-02-02T06:20:36.477Z,96248.78
2023-02-02T06:23:03.510Z,96254.34
2023-02-02T06:25:30.707Z,96260.72
2023-02-02T06:27:58.827Z,96259.34
2023-02-02T06:30:26.439Z,96255.72
2023-02-02T06:32:53.818Z,96265.09
2023-02-02T06:35:20.933Z,96251.38
2023-02-02T06:37:48.546Z,96250.25
2023-02-02T06:40:15.647Z,96271.69
2023-02-02T06:42:42.546Z,96269.91
2023-02-02T06:45:10.261Z,96278.09
2023-02-02T06:47:37.269Z,96280.69
2023-02-02T06:50:05.135Z,96283.50
2023-02-02T06:52:32.240Z,96294.03
2023-02-02T06:54:59.229Z,96303.00
2023-02-02T06:57:26.189Z,96308.56
2023-02-02T06:59:53.148Z,96307.41
2023-02-02T07:02:20.221Z,96315.53
2023-02-02T07:04:47.229Z,96336.69
2023-02-02T07:07:14.158Z,96336.88
2023-02-02T07:09:41.125Z,96340.44
2023-02-02T07:12:08.017Z,96350.41
2023-02-02T07:14:35.068Z,96356.16
2023-02-02T07:17:01.956Z,96357.72
2023-02-02T07:19:29.364Z,96356.75
2023-02-02T07:21:56.309Z,96356.16
2023-02-02T07:24:23.297Z,96343.94
2023-02-02T07:26:50.276Z,96349.63
2023-02-02T07:29:17.261Z,96343.66
2023-02-02T07:31:44.404Z,96341.22
2023-02-02T07:34:11.372Z,96344.63
2023-02-02T07:36:38.680Z,96344.47
2023-02-02T07:39:05.869Z,96342.41
2023-02-02T07:41:35.375Z,96348.66
2023-02-02T07:44:02.370Z,96372.69
2023-02-02T07:46:29.567Z,96375.34
2023-02-02T07:49:00.199Z,96383.16
2023-02-02T07:51:27.161Z,96378.78
2023-02-02T07:53:55.345Z,96377.00
2023-02-02T07:56:23.773Z,96379.59
2023-02-02T07:58:53.289Z,96378.03
2023-02-02T08:01:23.254Z,96389.22
2023-02-02T08:03:51.092Z,96385.88
2023-02-02T08:06:24.232Z,96386.66
2023-02-02T08:08:51.838Z,96391.22
2023-02-02T08:11:21.722Z,96392.47
2023-02-02T08:13:50.419Z,96403.03
2023-02-02T08:16:18.069Z,96406.00
2023-02-02T08:18:45.497Z,96411.25
2023-02-02T08:21:13.048Z,96409.66
2023-02-02T08:23:41.430Z,96405.06
2023-02-02T08:26:21.200Z,96423.47
2023-02-02T08:28:51.801Z,96422.88
2023-02-02T08:31:22.114Z,96415.09
2023-02-02T08:33:49.551Z,96423.09
2023-02-02T08:36:19.827Z,96422.50
2023-02-02T08:38:47.128Z,96441.63
2023-02-02T08:41:17.681Z,96447.03
2023-02-02T08:43:45.249Z,96434.72
2023-02-02T08:46:14.713Z,96435.28
2023-02-02T08:48:42.300Z,96443.66
2023-02-02T08:51:12.159Z,96431.81
2023-02-02T08:53:39.142Z,96433.03
2023-02-02T08:56:10.314Z,96436.78
2023-02-02T08:58:37.652Z,96429.13
2023-02-02T09:01:28.794Z,96432.69
2023-02-02T09:04:07.156Z,96440.00
2023-02-02T09:06:37.532Z,96448.94
2023-02-02T09:09:06.040Z,96449.97
2023-02-02T09:11:33.441Z,96461.28
2023-02-02T09:14:06.647Z,96460.88
2023-02-02T09:16:35.103Z,96458.78
2023-02-02T09:19:02.571Z,96453.19
2023-02-02T09:21:29.606Z,96466.59
2023-02-02T09:23:56.802Z,96476.41
2023-02-02T09:26:29.893Z,96473.25
2023-02-02T09:29:04.822Z,96473.69
2023-02-02T09:31:35.300Z,96473.47
2023-02-02T09:34:04.034Z,96472.31
2023-02-02T09:36:31.744Z,96480.34
2023-02-02T09:38:59.097Z,96475.78
2023-02-02T09:41:37.974Z,96480.56
2023-02-02T09:44:11.511Z,96498.06
2023-02-02T09:47:12.187Z,96497.13
2023-02-02T09:49:57.760Z,96496.94
2023-02-02T09:52:34.754Z,96490.38
2023-02-02T09:55:16.807Z,96486.63
2023-02-02T09:57:49.178Z,96489.38
2023-02-02T10:00:31.796Z,96487.00
2023-02-02T10:03:37.921Z,96491.44
2023-02-02T10:06:21.707Z,96492.22
2023-02-02T10:08:58.998Z,96500.06
2023-02-02T10:11:28.940Z,96494.78
2023-02-02T10:14:00.278Z,96495.94
2023-02-02T10:16:27.721Z,96488.22
2023-02-02T10:19:09.918Z,96498.47
2023-02-02T10:21:53.161Z,96499.38
2023-02-02T10:24:26.671Z,96509.75
2023-02-02T10:27:04.568Z,96509.91
2023-02-02T10:29:49.277Z,96508.22
2023-02-02T10:32:26.977Z,96510.00
2023-02-02T10:35:11.073Z,96506.41
2023-02-02T10:37:54.457Z,96508.56
2023-02-02T10:40:56.945Z,96498.66
2023-02-02T10:43:47.397Z,96511.47
2023-02-02T10:46:20.355Z,96504.38
2023-02-02T10:48:49.250Z,96498.03
2023-02-02T10:51:28.696Z,96497.81
2023-02-02T10:53:59.378Z,96499.44
2023-02-02T10:56:42.460Z,96484.53
2023-02-02T10:59:19.692Z,96490.97
2023-02-02T11:01:46.776Z,96478.81
2023-02-02T11:04:32.166Z,96473.44
2023-02-02T11:07:01.437Z,96472.19
2023-02-02T11:09:35.571Z,96471.78
2023-02-02T11:12:29.328Z,96476.03
2023-02-02T11:15:09.433Z,96464.69
2023-02-02T11:17:36.472Z,96472.09
2023-02-02T11:20:23.565Z,96465.72
2023-02-02T11:23:01.356Z,96470.53
2023-02-02T11:25:36.993Z,96456.22
2023-02-02T11:28:21.318Z,96458.81
2023-02-02T11:30:52.718Z,96455.44
2023-02-02T11:33:33.860Z,96457.25
2023-02-02T11:36:06.272Z,96455.28
2023-02-02T11:38:33.538Z,96454.06
2023-02-02T11:41:07.270Z,96456.88
2023-02-02T11:43:53.755Z,96457.47
2023-02-02T11:46:31.286Z,96458.28
2023-02-02T11:49:10.308Z,96466.13
2023-02-02T11:51:37.352Z,96459.41
2023-02-02T11:54:08.125Z,96463.44
2023-02-02T11:56:37.284Z,96458.63
2023-02-02T11:59:05.745Z,96457.28
2023-02-02T12:13:58.706Z,96435.09
2023-02-02T12:16:37.948Z,96435.28
2023-02-02T12:19:23.129Z,96432.28
2023-02-02T12:22:37.992Z,96432.31
2023-02-02T12:25:25.666Z,96422.38
2023-02-02T12:27:59.240Z,96426.81
2023-02-02T12:31:07.946Z,96429.41
2023-02-02T12:33:53.677Z,96435.47
2023-02-02T12:36:41.816Z,96435.69
2023-02-02T12:39:39.759Z,96425.91
2023-02-02T12:42:15.550Z,96424.91
2023-02-02T12:44:42.439Z,96421.53
2023-02-02T12:47:28.960Z,96435.47
2023-02-02T12:50:31.532Z,96418.16
2023-02-02T12:53:29.320Z,96422.94
2023-02-02T12:56:17.016Z,96418.56
2023-02-02T12:59:14.730Z,96424.72
2023-02-02T13:01:44.371Z,96418.97
2023-02-02T13:04:32.577Z,96410.19
2023-02-02T13:07:05.189Z,96418.97
2023-02-02T13:09:50.206Z,96412.75
2023-02-02T13:12:23.240Z,96413.56
2023-02-02T13:15:03.992Z,96413.34
2023-02-02T13:17:42.076Z,96413.53
2023-02-02T13:20:23.164Z,96417.13
2023-02-02T13:22:54.499Z,96413.97
2023-02-02T13:25:30.713Z,96419.34
2023-02-02T13:28:00.395Z,96414.75
2023-02-02T13:30:39.842Z,96416.38
2023-02-02T13:33:37.969Z,96411.75
2023-02-02T13:36:16.559Z,96413.78
2023-02-02T13:38:45.908Z,96416.75
2023-02-02T13:41:13.883Z,96423.13
2023-02-02T13:43:43.791Z,96415.38
2023-02-02T13:46:30.049Z,96415.97
2023-02-02T13:49:13.492Z,96411.56
2023-02-02T13:51:56.170Z,96416.56
2023-02-02T13:54:45.952Z,96414.97
2023-02-02T13:57:40.513Z,96417.56
2023-02-02T14:00:21.935Z,96422.16
2023-02-02T14:02:58.056Z,96411.19
2023-02-02T14:05:28.332Z,96415.56
2023-02-02T14:08:07.475Z,96419.16
2023-02-02T14:10:43.209Z,96422.72
2023-02-02T14:13:30.601Z,96419.72
2023-02-02T14:16:00.232Z,96426.72
2023-02-02T14:18:49.299Z,96414.53
2023-02-02T14:21:32.166Z,96419.53
2023-02-02T14:24:21.589Z,96422.31
2023-02-02T14:26:59.317Z,96422.38
2023-02-02T14:29:32.016Z,96417.56
2023-02-02T14:32:29.537Z,96418.38
2023-02-02T14:35:20.579Z,96428.75
2023-02-02T14:37:58.645Z,96421.16
2023-02-02T14:40:38.950Z,96423.56
2023-02-02T14:43:46.317Z,96419.97
2023-02-02T14:46:13.388Z,96422.94
2023-02-02T14:48:57.328Z,96430.34
2023-02-02T14:51:28.040Z,96433.13
2023-02-02T14:54:01.337Z,96442.09
2023-02-02T14:57:03.054Z,96443.50
2023-02-02T14:59:36.950Z,96434.72
2023-02-02T15:02:10.593Z,96437.31
2023-02-02T15:04:37.802Z,96433.94
2023-02-02T15:07:23.391Z,96435.72
2023-02-02T15:09:56.953Z,96439.91
2023-02-02T15:12:43.271Z,96447.28
2023-02-02T15:15:28.183Z,96442.69
2023-02-02T15:18:05.511Z,96447.69
2023-02-02T15:20:49.863Z,96458.28
2023-02-02T15:23:23.773Z,96456.22
2023-02-02T15:25:54.475Z,96459.81
2023-02-02T15:28:57.419Z,96470.72
2023-02-02T15:31:42.916Z,96472.69
2023-02-02T15:34:36.249Z,96478.47
2023-02-02T15:37:06.689Z,96485.25
2023-02-02T15:39:41.934Z,96473.59
2023-02-02T15:42:34.962Z,96478.41
2023-02-02T15:45:02.370Z,96490.16
2023-02-02T15:47:36.569Z,96486.94
2023-02-02T15:50:19.249Z,96487.34
2023-02-02T15:52:50.387Z,96496.09
2023-02-02T15:55:22.127Z,96495.44
2023-02-02T15:57:53.126Z,96496.69
2023-02-02T16:00:34.371Z,96505.63
2023-02-02T16:03:27.114Z,96512.59
2023-02-02T16:05:56.795Z,96516.09
2023-02-02T16:08:35.475Z,96510.69
2023-02-02T16:11:19.517Z,96516.91
2023-02-02T16:14:10.607Z,96521.13
2023-02-02T16:16:40.061Z,96524.72
2023-02-02T16:19:24.852Z,96527.63
2023-02-02T16:21:56.422Z,96532.22
2023-02-02T16:24:30.631Z,96543.22
2023-02-02T16:27:03.006Z,96531.09
2023-02-02T16:29:30.294Z,96539.47
2023-02-02T16:31:58.560Z,96541.69
2023-02-02T16:34:41.053Z,96548.88
2023-02-02T16:37:15.040Z,96559.03
2023-02-02T16:39:42.516Z,96558.09
2023-02-02T16:42:30.282Z,96572.44
2023-02-02T16:44:59.558Z,96566.09
2023-02-02T16:47:26.585Z,96580.03
2023-02-02T16:50:08.859Z,96584.22
2023-02-02T16:53:02.955Z,96586.81
2023-02-02T16:55:48.029Z,96595.59
2023-02-02T16:58:21.972Z,96602.38
2023-02-02T17:01:13.973Z,96608.72
2023-02-02T17:03:51.298Z,96600.94
2023-02-02T17:06:31.283Z,96617.50
2023-02-02T17:09:17.224Z,96628.66
2023-02-02T17:12:33.117Z,96631.47
2023-02-02T17:15:06.154Z,96639.84
2023-02-02T17:17:33.203Z,96640.47
2023-02-02T17:20:00.209Z,96656.63
2023-02-02T17:22:27.962Z,96663.44
2023-02-02T17:24:55.128Z,96664.22
2023-02-02T17:27:28.208Z,96669.78
2023-02-02T17:29:56.508Z,96677.56
2023-02-02T17:32:25.070Z,96681.75
2023-02-02T17:34:52.029Z,96692.75
2023-02-02T17:37:19.206Z,96686.13
2023-02-02T17:39:46.317Z,96690.34
2023-02-02T17:42:39.516Z,96705.88
2023-02-02T17:45:33.798Z,96715.22
2023-02-02T17:48:01.874Z,96719.59
2023-02-02T17:50:29.889Z,96716.38
2023-02-02T17:52:57.165Z,96723.34
2023-02-02T17:55:47.085Z,96731.13
2023-02-02T17:58:17.300Z,96738.09
2023-02-02T18:00:47.243Z,96736.66
2023-02-02T18:03:26.756Z,96738.66
2023-02-02T18:05:53.886Z,96742.25
2023-02-02T18:08:20.994Z,96744.88
2023-02-02T18:10:48.412Z,96755.88
2023-02-02T18:13:17.813Z,96755.78
2023-02-02T18:15:44.834Z,96757.94
2023-02-02T18:18:15.173Z,96761.09
2023-02-02T18:20:48.147Z,96764.41
2023-02-02T18:23:16.054Z,96765.94
2023-02-02T18:25:43.443Z,96770.94
2023-02-02T18:28:11.050Z,96775.47
2023-02-02T18:30:39.725Z,96785.03
2023-02-02T18:33:10.597Z,96790.41
2023-02-02T18:35:45.921Z,96792.56
2023-02-02T18:38:13.432Z,96789.16
2023-02-02T18:40:40.706Z,96785.59
2023-02-02T18:43:07.978Z,96797.75
2023-02-02T18:45:36.056Z,96794.69
2023-02-02T18:48:03.103Z,96796.31
2023-02-02T18:50:30.291Z,96789.34
2023-02-02T18:52:57.359Z,96788.72
2023-02-02T18:55:24.965Z,96798.63
2023-02-02T18:57:53.862Z,96783.91
2023-02-02T19:00:22.328Z,96792.31
2023-02-02T19:02:49.454Z,96788.38
2023-02-02T19:05:35.137Z,96791.50
2023-02-02T19:08:11.690Z,96798.66
2023-02-02T19:10:38.770Z,96795.78
2023-02-02T19:13:05.762Z,96786.59
2023-02-02T19:15:39.520Z,96786.75
2023-02-02T19:18:16.232Z,96791.22
2023-02-02T19:20:43.844Z,96783.03
2023-02-02T19:23:16.651Z,96782.13
2023-02-02T19:25:51.356Z,96793.38
2023-02-02T19:28:30.949Z,96798.88
2023-02-02T19:31:01.420Z,96788.53
2023-02-02T19:33:40.881Z,96799.53
2023-02-02T19:36:22.833Z,96792.28
2023-02-02T19:38:56.030Z,96798.50
2023-02-02T19:41:26.471Z,96789.28
2023-02-02T19:44:10.754Z,96788.47
2023-02-02T19:46:43.946Z,96800.34
2023-02-02T19:49:16.450Z,96807.75
2023-02-02T19:51:48.810Z,96805.25
2023-02-02T19:54:48.190Z,96820.63
2023-02-02T19:57:33.095Z,96819.06
2023-02-02T20:00:11.795Z,96826.81
2023-02-02T20:03:02.178Z,96825.25
2023-02-02T20:05:34.826Z,96829.44
2023-02-02T20:08:24.433Z,96833.78
2023-02-02T20:10:54.069Z,96840.59
2023-02-02T20:13:43.957Z,96841.28
2023-02-02T20:16:22.592Z,96853.88
2023-02-02T20:18:53.957Z,96847.19
2023-02-02T20:21:43.971Z,96863.69
2023-02-02T20:24:18.345Z,96879.69
2023-02-02T20:26:46.566Z,96880.50
2023-02-02T20:29:25.271Z,96885.03
2023-02-02T20:31:54.701Z,96899.94
2023-02-02T20:34:29.561Z,96888.16
2023-02-02T20:36:59.467Z,96897.25
2023-02-02T20:39:40.036Z,96900.38
2023-02-02T20:42:07.372Z,96898.75
2023-02-02T20:44:35.530Z,96892.66
2023-02-02T20:47:03.163Z,96895.25
2023-02-02T20:49:32.005Z,96893.09
2023-02-02T20:52:01.031Z,96896.03
2023-02-02T20:54:29.080Z,96890.03
2023-02-02T20:56:56.072Z,96897.81
2023-02-02T20:59:23.118Z,96893.91
2023-02-02T21:01:50.764Z,96895.75
2023-02-02T21:04:18.692Z,96898.94
2023-02-02T21:06:48.906Z,96894.78
2023-02-02T21:09:16.846Z,96901.38
2023-02-02T21:11:44.530Z,96907.50
2023-02-02T21:14:11.562Z,96907.34
2023-02-02T21:16:38.619Z,96912.69
2023-02-02T21:19:06.089Z,96911.22
2023-02-02T21:21:33.100Z,96915.38
2023-02-02T21:24:01.079Z,96918.59
2023-02-02T21:26:30.832Z,96907.91
2023-02-02T21:28:58.788Z,96916.75
2023-02-02T21:31:26.404Z,96922.59
2023-02-02T21:33:54.080Z,96923.09
2023-02-02T21:36:32.335Z,96933.75
2023-02-02T21:39:17.480Z,96935.16
2023-02-02T21:41:44.711Z,96927.22
2023-02-02T21:44:17.082Z,96938.22
2023-02-02T21:46:45.564Z,96940.50
2023-02-02T21:49:40.122Z,96942.09
2023-02-02T21:52:14.399Z,96958.44
2023-02-02T21:54:41.750Z,96956.38
2023-02-02T21:57:21.545Z,96952.53
2023-02-02T21:59:57.433Z,96964.16
2023-02-02T22:02:44.662Z,96958.16
2023-02-02T22:05:36.217Z,96951.22
2023-02-02T22:08:18.698Z,96950.41
2023-02-02T22:10:45.960Z,96965.94
2023-02-02T22:13:24.042Z,96964.47
2023-02-02T22:15:52.092Z,96949.16
2023-02-02T22:18:24.251Z,96957.88
2023-02-02T22:20:53.405Z,96963.34
2023-02-02T22:23:26.840Z,96959.78
2023-02-02T22:25:56.997Z,96962.81
2023-02-02T22:28:28.885Z,96958.50
2023-02-02T22:30:57.189Z,96955.56
2023-02-02T22:33:26.461Z,96951.38
2023-02-02T22:35:53.813Z,96952.34
2023-02-02T22:38:23.081Z,96951.22
2023-02-02T22:40:51.749Z,96947.97
2023-02-02T22:43:20.670Z,96948.63
2023-02-02T22:45:49.441Z,96948.63
2023-02-02T22:48:17.168Z,96953.44
2023-02-02T22:50:44.487Z,96960.00
2023-02-02T22:53:12.551Z,96953.31
2023-02-02T22:55:39.510Z,96958.50
2023-02-02T22:58:06.516Z,96954.59
2023-02-02T23:00:33.550Z,96956.03
2023-02-02T23:03:01.096Z,96956.03
2023-02-02T23:05:28.538Z,96959.88
2023-02-02T23:07:55.946Z,96952.59
2023-02-02T23:10:26.214Z,96952.13
2023-02-02T23:12:55.423Z,96953.41
2023-02-02T23:15:22.780Z,96952.00
2023-02-02T23:17:50.100Z,96950.88
2023-02-02T23:20:18.157Z,96955.75
2023-02-02T23:22:45.247Z,96946.19
2023-02-02T23:25:13.591Z,96954.59
2023-02-02T23:27:40.904Z,96946.47
2023-02-02T23:30:09.414Z,96962.13
2023-02-02T23:32:36.549Z,96960.28
2023-02-02T23:35:04.398Z,96958.63
2023-02-02T23:37:31.440Z,96972.72
2023-02-02T23:39:58.449Z,96968.34
2023-02-02T23:42:25.937Z,96972.00
2023-02-02T23:44:53.114Z,96977.34
2023-02-02T23:47:20.259Z,96982.66
2023-02-02T23:49:47.411Z,96990.56
2023-02-02T23:52:15.003Z,96989.44
2023-02-02T23:54:43.010Z,96996.19
2023-02-02T23:57:10.546Z,96990.66
2023-02-02T23:59:37.487Z,96990.84
